createdAt,value
2023-03-06T02:23:39.984Z,1.91
2023-03-06T02:30:15.378Z,1.93
2023-03-06T02:32:42.323Z,1.95
2023-03-06T02:35:21.916Z,1.97
2023-03-06T02:37:49.451Z,2.00
2023-03-06T02:40:17.692Z,2.05
2023-03-06T02:42:58.223Z,2.06
2023-03-06T02:45:39.389Z,2.08
2023-03-06T02:48:07.083Z,2.10
2023-03-06T02:50:33.980Z,2.10
2023-03-06T02:53:01.041Z,2.09
2023-03-06T02:55:27.904Z,2.11
2023-03-06T02:57:54.768Z,2.16
2023-03-06T03:00:22.129Z,2.17
2023-03-06T03:02:49.115Z,2.20
2023-03-06T03:05:16.124Z,2.22
2023-03-06T03:07:43.251Z,2.23
2023-03-06T03:10:11.027Z,2.24
2023-03-06T03:12:38.253Z,2.28
2023-03-06T03:15:06.600Z,2.31
2023-03-06T03:17:39.795Z,2.35
2023-03-06T03:20:18.011Z,2.40
2023-03-06T03:22:49.810Z,2.45
2023-03-06T03:25:17.391Z,2.54
2023-03-06T03:27:44.306Z,2.55
2023-03-06T03:30:12.248Z,2.57
2023-03-06T03:32:39.393Z,2.62
2023-03-06T03:35:09.376Z,2.66
2023-03-06T03:37:37.348Z,2.69
2023-03-06T03:40:06.983Z,2.71
2023-03-06T03:42:33.943Z,2.73
2023-03-06T03:45:00.861Z,2.76
2023-03-06T03:47:27.785Z,2.78
2023-03-06T03:49:54.663Z,2.80
2023-03-06T03:52:21.788Z,2.82
2023-03-06T03:54:48.646Z,2.84
2023-03-06T03:57:15.543Z,2.87
2023-03-06T03:59:42.466Z,2.87
2023-03-06T04:02:09.334Z,2.86
2023-03-06T04:04:36.278Z,2.87
2023-03-06T04:07:04.374Z,2.87
2023-03-06T04:09:31.269Z,2.86
2023-03-06T04:11:58.349Z,2.87
2023-03-06T04:14:25.280Z,2.85
2023-03-06T04:16:52.160Z,2.83
2023-03-06T04:19:19.121Z,2.79
2023-03-06T04:21:46.097Z,2.76
2023-03-06T04:24:13.180Z,2.72
2023-03-06T04:26:40.131Z,2.66
2023-03-06T04:29:07.078Z,2.62
2023-03-06T04:31:34.078Z,2.58
2023-03-06T04:34:01.004Z,2.56
2023-03-06T04:36:31.994Z,2.54
2023-03-06T04:39:00.109Z,2.52
2023-03-06T04:41:27.329Z,2.48
2023-03-06T04:43:54.536Z,2.45
2023-03-06T04:46:21.430Z,2.44
2023-03-06T04:48:48.363Z,2.43
2023-03-06T04:51:15.580Z,2.42
2023-03-06T04:53:42.481Z,2.39
2023-03-06T04:56:09.689Z,2.31
2023-03-06T04:58:36.671Z,2.31
2023-03-06T05:01:04.309Z,2.33
2023-03-06T05:03:31.220Z,2.33
2023-03-06T05:05:58.269Z,2.33
2023-03-06T05:08:25.200Z,2.33
2023-03-06T05:11:00.615Z,2.28
2023-03-06T05:13:28.651Z,2.23
2023-03-06T05:15:55.986Z,2.20
2023-03-06T05:18:22.875Z,2.16
2023-03-06T05:20:49.759Z,2.15
2023-03-06T05:23:16.671Z,2.15
2023-03-06T05:25:43.540Z,2.17
2023-03-06T05:28:10.442Z,2.16
2023-03-06T05:30:37.347Z,2.15
2023-03-06T05:33:04.374Z,2.16
2023-03-06T05:35:32.130Z,2.17
2023-03-06T05:37:59.022Z,2.14
2023-03-06T05:40:26.351Z,2.12
2023-03-06T05:42:53.470Z,2.10
2023-03-06T05:45:20.496Z,2.11
2023-03-06T05:47:47.441Z,2.11
2023-03-06T05:50:14.814Z,2.11
2023-03-06T05:52:41.787Z,2.07
2023-03-06T05:55:12.112Z,2.04
2023-03-06T05:57:39.301Z,2.03
2023-03-06T06:00:07.429Z,2.02
2023-03-06T06:02:34.362Z,1.98
2023-03-06T06:05:03.061Z,1.97
2023-03-06T06:07:30.003Z,1.96
2023-03-06T06:09:56.842Z,1.96
2023-03-06T06:12:23.872Z,1.94
2023-03-06T06:14:50.909Z,1.92
2023-03-06T06:17:17.805Z,1.94
2023-03-06T06:19:45.093Z,1.97
2023-03-06T06:22:12.512Z,1.99
2023-03-06T06:24:39.827Z,2.01
2023-03-06T06:27:07.727Z,2.01
2023-03-06T06:29:34.654Z,1.99
2023-03-06T06:32:02.227Z,2.00
2023-03-06T06:34:30.457Z,2.01
2023-03-06T06:36:57.478Z,1.99
2023-03-06T06:39:25.180Z,1.99
2023-03-06T06:42:09.682Z,2.02
2023-03-06T06:44:39.883Z,2.03
2023-03-06T06:47:24.900Z,2.04
2023-03-06T06:49:54.879Z,2.03
2023-03-06T06:52:23.776Z,2.04
2023-03-06T06:54:51.242Z,2.05
2023-03-06T06:57:18.673Z,2.07
2023-03-06T06:59:45.575Z,2.10
2023-03-06T07:02:14.668Z,2.14
2023-03-06T07:04:56.178Z,2.20
2023-03-06T07:07:27.723Z,2.20
2023-03-06T07:09:55.843Z,2.19
2023-03-06T07:12:22.830Z,2.18
2023-03-06T07:14:49.740Z,2.17
2023-03-06T07:17:16.707Z,2.15
2023-03-06T07:19:43.634Z,2.16
2023-03-06T07:22:10.566Z,2.22
2023-03-06T07:24:37.496Z,2.30
2023-03-06T07:27:04.371Z,2.34
2023-03-06T07:29:32.978Z,2.35
2023-03-06T07:32:00.171Z,2.40
2023-03-06T07:34:27.182Z,2.40
2023-03-06T07:36:54.159Z,2.38
2023-03-06T07:39:21.128Z,2.40
2023-03-06T07:41:48.039Z,2.43
2023-03-06T07:44:14.946Z,2.45
2023-03-06T07:46:41.933Z,2.50
2023-03-06T07:49:08.933Z,2.55
2023-03-06T07:51:35.808Z,2.63
2023-03-06T07:54:02.851Z,2.70
2023-03-06T07:56:30.005Z,2.76
2023-03-06T07:58:57.239Z,2.77
2023-03-06T08:01:24.243Z,2.77
2023-03-06T08:03:52.138Z,2.80
2023-03-06T08:06:23.620Z,2.84
2023-03-06T08:08:52.602Z,2.89
2023-03-06T08:11:23.635Z,2.93
2023-03-06T08:13:52.677Z,2.93
2023-03-06T08:16:25.937Z,2.91
2023-03-06T08:18:53.163Z,2.91
2023-03-06T08:21:24.710Z,2.97
2023-03-06T08:23:52.209Z,3.05
2023-03-06T08:39:53.140Z,3.28
2023-03-06T08:50:36.627Z,3.17
2023-03-06T08:53:22.739Z,3.16
2023-03-06T16:31:40.958Z,3.28
2023-03-06T16:34:07.826Z,3.24
2023-03-06T16:36:34.767Z,3.17
2023-03-06T16:39:01.739Z,3.10
2023-03-06T16:41:28.616Z,3.00
2023-03-06T16:43:55.661Z,2.91
2023-03-06T16:46:24.608Z,2.80
2023-03-06T16:48:52.629Z,2.71
2023-03-06T16:51:23.048Z,2.61
2023-03-06T16:53:51.010Z,2.51
2023-03-06T16:56:20.488Z,2.42
2023-03-06T16:58:48.467Z,2.31
2023-03-06T17:01:18.552Z,2.22
2023-03-06T17:03:46.403Z,2.15
2023-03-06T17:06:20.110Z,2.08
2023-03-06T17:08:48.708Z,1.99
2023-03-06T17:11:16.633Z,1.93
2023-03-06T17:13:44.337Z,1.87
2023-03-06T17:16:16.395Z,1.83
2023-03-06T17:18:45.441Z,1.78
2023-03-06T17:21:15.652Z,1.73
2023-03-06T17:23:42.990Z,1.68
2023-03-06T17:26:18.837Z,1.61
2023-03-06T17:28:47.121Z,1.54
2023-03-06T17:31:25.405Z,1.47
2023-03-06T17:33:57.053Z,1.42
2023-03-06T17:36:23.939Z,1.34
2023-03-06T17:38:54.963Z,1.29
2023-03-06T17:41:24.387Z,1.25
2023-03-06T17:44:01.658Z,1.21
2023-03-06T17:46:28.692Z,1.17
2023-03-06T17:48:56.565Z,1.11
2023-03-06T17:51:23.887Z,1.05
2023-03-06T17:53:52.167Z,1.00
2023-03-06T17:56:19.260Z,0.94
2023-03-06T17:58:46.139Z,0.90
2023-03-06T18:01:20.451Z,0.88
2023-03-06T18:03:50.772Z,0.82
2023-03-06T18:06:19.373Z,0.76
2023-03-06T18:08:46.585Z,0.71
2023-03-06T18:11:14.204Z,0.66
2023-03-06T18:13:43.906Z,0.60
2023-03-06T18:16:13.752Z,0.58
2023-03-06T18:18:41.048Z,0.53
2023-03-06T18:21:11.727Z,0.50
2023-03-06T18:23:39.971Z,0.46
2023-03-06T18:26:11.659Z,0.42
2023-03-06T18:28:44.662Z,0.37
2023-03-06T18:31:27.895Z,0.33
2023-03-06T18:34:01.385Z,0.31
2023-03-06T18:36:32.074Z,0.28
2023-03-06T18:39:00.831Z,0.25
2023-03-06T18:41:27.822Z,0.20
2023-03-06T18:44:00.402Z,0.14
2023-03-06T18:46:33.563Z,0.08
2023-03-06T18:49:00.532Z,0.04
2023-03-06T18:51:28.439Z,0.00
2023-03-06T18:54:03.709Z,-0.03
2023-03-06T18:56:31.261Z,-0.06
2023-03-06T18:59:06.493Z,-0.09
2023-03-06T19:01:34.249Z,-0.12
2023-03-06T19:04:03.213Z,-0.13
2023-03-06T19:06:30.717Z,-0.14
2023-03-06T19:09:02.189Z,-0.17
2023-03-06T19:11:29.672Z,-0.20
2023-03-06T19:13:56.534Z,-0.24
2023-03-06T19:16:26.988Z,-0.27
2023-03-06T19:18:55.695Z,-0.29
2023-03-06T19:21:25.636Z,-0.33
2023-03-06T19:23:52.993Z,-0.35
2023-03-06T19:26:20.214Z,-0.35
2023-03-06T19:28:48.235Z,-0.34
2023-03-06T19:31:25.680Z,-0.32
2023-03-06T19:33:54.823Z,-0.30
2023-03-06T19:36:26.770Z,-0.31
2023-03-06T19:39:03.553Z,-0.31
2023-03-06T19:41:31.088Z,-0.30
2023-03-06T19:44:02.310Z,-0.28
2023-03-06T19:46:29.517Z,-0.26
2023-03-06T19:48:59.273Z,-0.25
2023-03-06T19:51:27.145Z,-0.26
2023-03-06T19:53:54.425Z,-0.29
2023-03-06T19:56:27.517Z,-0.32
2023-03-06T19:58:55.102Z,-0.34
2023-03-06T20:01:24.987Z,-0.34
2023-03-06T20:03:59.067Z,-0.37
2023-03-06T20:06:29.799Z,-0.39
2023-03-06T20:08:57.415Z,-0.42
2023-03-06T20:11:32.396Z,-0.43
2023-03-06T20:14:02.113Z,-0.44
2023-03-06T20:16:29.980Z,-0.47
2023-03-06T20:18:59.923Z,-0.49
2023-03-06T20:21:29.935Z,-0.52
2023-03-06T20:23:58.234Z,-0.55
2023-03-06T20:26:28.226Z,-0.57
2023-03-06T20:28:55.656Z,-0.56
2023-03-06T20:31:26.884Z,-0.57
2023-03-06T20:33:57.584Z,-0.56
2023-03-06T20:36:28.903Z,-0.56
2023-03-06T20:38:59.261Z,-0.55
2023-03-06T20:41:29.157Z,-0.51
2023-03-06T20:43:58.158Z,-0.49
2023-03-06T20:46:25.450Z,-0.48
2023-03-06T20:48:54.146Z,-0.46
2023-03-06T20:51:24.170Z,-0.46
2023-03-06T20:53:55.655Z,-0.47
2023-03-06T20:56:26.272Z,-0.51
2023-03-06T20:58:53.958Z,-0.56
2023-03-06T21:01:27.508Z,-0.57
2023-03-06T21:03:56.858Z,-0.58
2023-03-06T21:06:25.423Z,-0.58
2023-03-06T21:08:52.453Z,-0.58
2023-03-06T21:11:19.432Z,-0.61
2023-03-06T21:13:46.600Z,-0.59
2023-03-06T21:16:18.046Z,-0.60
2023-03-06T21:18:45.495Z,-0.58
2023-03-06T21:21:21.186Z,-0.59
2023-03-06T21:23:48.974Z,-0.61
2023-03-06T21:26:22.398Z,-0.62
2023-03-06T21:28:50.008Z,-0.62
2023-03-06T21:31:20.020Z,-0.61
2023-03-06T21:33:48.726Z,-0.65
2023-03-06T21:36:16.587Z,-0.68
2023-03-06T21:38:43.542Z,-0.64
2023-03-06T21:41:24.584Z,-0.63
2023-03-06T21:44:00.753Z,-0.68
2023-03-06T21:46:28.592Z,-0.70
2023-03-06T21:48:56.564Z,-0.68
2023-03-06T21:51:24.995Z,-0.70
2023-03-06T21:53:53.132Z,-0.72
2023-03-06T21:56:24.969Z,-0.75
2023-03-06T21:58:52.176Z,-0.77
2023-03-06T22:01:24.970Z,-0.78
2023-03-06T22:03:52.173Z,-0.79
2023-03-06T22:06:25.461Z,-0.82
2023-03-06T22:08:54.659Z,-0.82
2023-03-06T22:11:23.253Z,-0.82
2023-03-06T22:13:50.471Z,-0.86
2023-03-06T22:16:18.324Z,-0.85
2023-03-06T22:18:50.660Z,-0.87
2023-03-06T22:21:20.763Z,-0.89
2023-03-06T22:23:59.291Z,-0.92
2023-03-06T22:26:29.949Z,-0.93
2023-03-06T22:28:57.168Z,-0.93
2023-03-06T22:31:28.419Z,-0.94
2023-03-06T22:33:58.433Z,-0.96
2023-03-06T22:36:27.105Z,-1.00
2023-03-06T22:38:57.296Z,-1.02
2023-03-06T22:41:26.666Z,-1.02
2023-03-06T22:44:01.816Z,-1.04
2023-03-06T22:46:29.162Z,-1.03
2023-03-06T22:48:58.229Z,-1.06
2023-03-06T22:51:26.324Z,-1.08
2023-03-06T22:53:53.799Z,-1.07
2023-03-06T22:56:22.151Z,-1.03
2023-03-06T22:58:49.523Z,-1.02
2023-03-06T23:01:23.313Z,-1.03
2023-03-06T23:03:54.505Z,-1.03
2023-03-06T23:06:47.615Z,-1.03
2023-03-06T23:09:18.193Z,-1.03
2023-03-06T23:11:45.054Z,-1.07
2023-03-06T23:14:13.261Z,-1.10
2023-03-06T23:16:40.585Z,-1.12
2023-03-06T23:19:07.914Z,-1.12
2023-03-06T23:21:34.935Z,-1.03
2023-03-06T23:24:02.387Z,-0.90
2023-03-06T23:26:31.079Z,-0.77
2023-03-06T23:28:58.400Z,-0.63
2023-03-06T23:31:29.214Z,-0.54
2023-03-06T23:34:02.207Z,-0.47
2023-03-06T23:36:30.237Z,-0.45
2023-03-06T23:38:58.020Z,-0.37
2023-03-06T23:41:25.670Z,-0.31
2023-03-06T23:43:55.059Z,-0.25
2023-03-06T23:46:22.583Z,-0.21
2023-03-06T23:48:49.650Z,-0.15
2023-03-06T23:51:19.966Z,-0.12
2023-03-06T23:53:52.446Z,-0.06
2023-03-06T23:56:19.506Z,-0.08
2023-03-06T23:58:46.949Z,-0.09
